createdAt,value
2022-09-12T00:00:15.874Z,1.00
2022-09-12T00:02:42.823Z,0.90
2022-09-12T00:05:09.895Z,1.30
2022-09-12T00:07:36.822Z,1.77
2022-09-12T00:10:04.236Z,0.90
2022-09-12T00:12:31.226Z,1.00
2022-09-12T00:14:58.240Z,1.58
2022-09-12T00:17:25.164Z,1.00
2022-09-12T00:19:52.305Z,1.17
2022-09-12T00:22:19.185Z,1.00
2022-09-12T00:24:46.083Z,0.88
2022-09-12T00:27:13.412Z,1.10
2022-09-12T00:29:40.302Z,1.42
2022-09-12T00:32:07.187Z,1.35
2022-09-12T00:34:34.110Z,1.40
2022-09-12T00:37:01.015Z,1.30
2022-09-12T00:39:28.139Z,0.90
2022-09-12T00:41:55.095Z,1.10
2022-09-12T00:44:21.937Z,1.10
2022-09-12T00:46:51.268Z,1.00
2022-09-12T00:49:52.465Z,1.13
2022-09-12T00:52:28.363Z,1.10
2022-09-12T00:55:01.514Z,1.30
2022-09-12T00:57:53.842Z,1.20
2022-09-12T01:00:23.406Z,0.75
2022-09-12T01:02:57.307Z,1.10
2022-09-12T01:05:26.133Z,1.10
2022-09-12T01:07:53.254Z,1.10
2022-09-12T01:10:20.427Z,0.90
2022-09-12T01:12:48.826Z,1.00
2022-09-12T01:15:15.800Z,1.10
2022-09-12T01:17:51.746Z,1.08
2022-09-12T01:20:56.099Z,0.85
2022-09-12T01:23:41.454Z,1.10
2022-09-12T01:26:30.585Z,1.08
2022-09-12T01:29:14.362Z,1.00
2022-09-12T01:32:10.740Z,2.05
2022-09-12T01:34:52.424Z,1.20
2022-09-12T01:37:49.661Z,1.10
2022-09-12T01:40:25.380Z,1.30
2022-09-12T01:42:53.027Z,1.30
2022-09-12T01:45:43.686Z,1.48
2022-09-12T01:48:24.701Z,1.15
2022-09-12T01:51:13.893Z,1.40
2022-09-12T01:53:51.129Z,1.48
2022-09-12T01:56:29.812Z,1.30
2022-09-12T01:59:01.378Z,1.30
2022-09-12T02:01:32.008Z,1.50
2022-09-12T02:04:09.422Z,1.30
2022-09-12T02:06:44.214Z,1.20
2022-09-12T02:09:18.426Z,1.95
2022-09-12T02:11:46.448Z,1.35
2022-09-12T02:14:21.764Z,2.03
2022-09-12T02:16:54.608Z,2.50
2022-09-12T02:22:02.785Z,2.10
2022-09-12T02:24:34.030Z,2.50
2022-09-12T02:27:06.153Z,3.70
2022-09-12T02:29:33.126Z,4.30
2022-09-12T02:32:06.049Z,3.72
2022-09-12T02:37:19.257Z,4.63
2022-09-12T02:42:14.220Z,4.65
2022-09-12T02:44:41.782Z,4.63
2022-09-12T02:47:18.572Z,3.58
2022-09-12T02:49:46.617Z,3.55
2022-09-12T02:52:13.491Z,3.45
2022-09-12T02:54:41.192Z,3.42
2022-09-12T02:57:23.112Z,1.85
2022-09-12T02:59:53.273Z,1.37
2022-09-12T03:02:48.767Z,1.40
2022-09-12T03:05:47.319Z,1.27
2022-09-12T03:08:33.040Z,1.52
2022-09-12T03:11:34.333Z,1.40
2022-09-12T03:14:27.871Z,1.45
2022-09-12T03:17:07.400Z,1.40
2022-09-12T03:19:48.669Z,1.70
2022-09-12T03:22:21.522Z,1.38
2022-09-12T03:27:21.097Z,1.55
2022-09-12T03:29:48.959Z,1.20
2022-09-12T03:32:15.995Z,1.30
2022-09-12T03:34:42.917Z,1.20
2022-09-12T03:37:09.982Z,1.05
2022-09-12T03:39:36.868Z,1.40
2022-09-12T03:42:03.886Z,1.30
2022-09-12T03:44:30.797Z,1.35
2022-09-12T03:46:57.706Z,1.27
2022-09-12T03:49:24.682Z,1.20
2022-09-12T03:51:51.573Z,1.33
2022-09-12T03:54:18.555Z,1.10
2022-09-12T03:56:45.489Z,1.20
2022-09-12T03:59:12.344Z,1.40
2022-09-12T04:01:39.305Z,1.30
2022-09-12T04:04:06.219Z,1.40
2022-09-12T04:06:33.102Z,1.33
2022-09-12T04:09:00.051Z,2.33
2022-09-12T04:11:26.965Z,1.92
2022-09-12T04:13:54.277Z,2.08
2022-09-12T04:16:21.439Z,1.80
2022-09-12T04:18:48.538Z,2.22
2022-09-12T04:21:18.786Z,2.17
2022-09-12T04:23:46.194Z,2.10
2022-09-12T04:26:13.964Z,1.88
2022-09-12T04:28:41.965Z,2.58
2022-09-12T04:31:15.792Z,5.50
2022-09-12T04:33:42.841Z,11.23
2022-09-12T04:36:12.577Z,9.50
2022-09-12T04:38:39.557Z,7.68
2022-09-12T04:41:18.815Z,3.63
2022-09-12T04:43:46.760Z,5.78
2022-09-12T04:46:15.428Z,9.65
2022-09-12T04:48:43.439Z,5.93
2022-09-12T04:51:14.236Z,13.90
2022-09-12T04:53:42.381Z,9.65
2022-09-12T04:56:11.546Z,2.38
2022-09-12T04:58:39.083Z,3.20
2022-09-12T05:01:11.784Z,1.90
2022-09-12T05:03:39.898Z,5.88
2022-09-12T05:06:09.818Z,5.60
2022-09-12T05:08:37.002Z,8.88
2022-09-12T05:11:12.188Z,8.85
2022-09-12T05:13:40.312Z,4.70
2022-09-12T05:16:10.013Z,4.80
2022-09-12T05:18:37.556Z,6.88
2022-09-12T05:21:07.247Z,9.82
2022-09-12T05:23:34.886Z,7.28
2022-09-12T05:26:02.753Z,6.00
2022-09-12T05:28:37.855Z,4.47
2022-09-12T05:31:06.242Z,3.05
2022-09-12T05:33:34.953Z,2.75
2022-09-12T05:36:03.352Z,4.15
2022-09-12T05:38:30.293Z,2.97
2022-09-12T05:41:18.219Z,2.63
2022-09-12T05:43:47.711Z,1.98
2022-09-12T05:46:17.323Z,5.55
2022-09-12T05:48:46.153Z,9.57
2022-09-12T05:51:36.873Z,7.38
2022-09-12T05:54:04.811Z,4.88
2022-09-12T05:56:34.771Z,3.60
2022-09-12T05:59:04.690Z,3.20
2022-09-12T06:01:33.490Z,2.40
2022-09-12T06:04:02.340Z,3.95
2022-09-12T06:06:30.915Z,4.82
2022-09-12T06:09:02.000Z,4.60
2022-09-12T06:11:31.193Z,2.00
2022-09-12T06:13:59.253Z,2.88
2022-09-12T06:16:31.728Z,1.40
2022-09-12T06:19:01.069Z,1.70
2022-09-12T06:21:29.049Z,1.30
2022-09-12T06:23:56.492Z,1.92
2022-09-12T06:26:26.364Z,2.17
2022-09-12T06:28:55.237Z,2.38
2022-09-12T06:31:31.862Z,1.92
2022-09-12T06:34:01.839Z,1.60
2022-09-12T06:36:31.860Z,2.00
2022-09-12T06:39:05.376Z,1.88
2022-09-12T06:41:33.380Z,4.60
2022-09-12T06:44:01.330Z,7.60
2022-09-12T06:46:28.903Z,6.13
2022-09-12T06:49:00.679Z,3.42
2022-09-12T06:51:29.465Z,5.37
2022-09-12T06:53:57.539Z,2.25
2022-09-12T06:56:26.862Z,4.50
2022-09-12T06:58:56.147Z,2.45
2022-09-12T07:01:31.403Z,6.20
2022-09-12T07:04:00.789Z,3.30
2022-09-12T07:06:32.114Z,3.22
2022-09-12T07:09:00.341Z,1.38
2022-09-12T07:11:30.740Z,1.48
2022-09-12T07:14:00.105Z,1.60
2022-09-12T07:16:27.354Z,1.70
2022-09-12T07:18:59.449Z,2.75
2022-09-12T07:21:27.257Z,1.38
2022-09-12T07:23:57.109Z,1.55
2022-09-12T07:26:29.083Z,1.17
2022-09-12T07:29:12.839Z,2.22
2022-09-12T07:31:45.155Z,2.83
2022-09-12T07:34:12.231Z,2.03
2022-09-12T07:36:39.375Z,1.80
2022-09-12T07:39:06.357Z,1.40
2022-09-12T07:41:36.290Z,1.60
2022-09-12T07:44:06.717Z,1.40
2022-09-12T07:46:34.227Z,1.42
2022-09-12T07:49:02.312Z,1.70
2022-09-12T07:51:30.474Z,1.60
2022-09-12T07:53:58.184Z,1.30
2022-09-12T07:56:30.166Z,1.45
2022-09-12T07:58:59.116Z,1.70
2022-09-12T08:01:26.771Z,1.58
2022-09-12T08:03:56.997Z,1.40
2022-09-12T08:06:25.272Z,2.03
2022-09-12T08:08:54.622Z,1.73
2022-09-12T08:11:23.796Z,1.80
2022-09-12T08:13:55.324Z,1.70
2022-09-12T08:16:25.281Z,1.67
2022-09-12T08:18:52.242Z,1.83
2022-09-12T08:21:27.028Z,1.75
2022-09-12T08:23:56.507Z,1.73
2022-09-12T08:26:24.841Z,2.05
2022-09-12T08:28:52.136Z,1.58
2022-09-12T08:31:20.714Z,2.08
2022-09-12T08:33:48.144Z,2.03
2022-09-12T08:36:24.540Z,2.13
2022-09-12T08:38:59.307Z,1.65
2022-09-12T08:41:35.336Z,1.98
2022-09-12T08:44:40.004Z,1.60
2022-09-12T08:47:25.180Z,1.60
2022-09-12T08:50:02.834Z,2.10
2022-09-12T08:52:53.173Z,2.25
2022-09-12T08:55:44.805Z,1.88
2022-09-12T08:58:23.947Z,2.42
2022-09-12T09:01:13.081Z,1.70
2022-09-12T09:04:02.122Z,2.15
2022-09-12T09:06:55.190Z,2.00
2022-09-12T09:09:48.339Z,2.10
2022-09-12T09:12:36.872Z,2.30
2022-09-12T09:15:25.135Z,1.90
2022-09-12T09:18:02.151Z,2.33
2022-09-12T09:20:32.030Z,2.50
2022-09-12T09:23:20.924Z,1.63
2022-09-12T09:26:10.603Z,1.63
2022-09-12T09:28:54.517Z,1.90
2022-09-12T09:31:27.287Z,1.90
2022-09-12T09:33:57.814Z,2.30
2022-09-12T09:37:13.906Z,1.70
2022-09-12T09:40:15.931Z,2.33
2022-09-12T09:42:42.933Z,2.05
2022-09-12T09:45:21.054Z,2.17
2022-09-12T09:48:08.349Z,2.25
2022-09-12T09:50:36.104Z,1.50
2022-09-12T09:53:04.438Z,1.58
2022-09-12T09:55:38.599Z,1.80
2022-09-12T09:58:05.749Z,1.60
2022-09-12T10:00:37.882Z,1.95
2022-09-12T10:03:13.809Z,1.85
2022-09-12T10:06:13.071Z,1.63
2022-09-12T10:08:40.675Z,2.08
2022-09-12T10:11:16.958Z,1.95
2022-09-12T10:13:57.135Z,1.80
2022-09-12T10:16:29.024Z,2.13
2022-09-12T10:19:01.779Z,1.58
2022-09-12T10:21:41.325Z,1.50
2022-09-12T10:24:28.394Z,1.88
2022-09-12T10:27:05.834Z,1.63
2022-09-12T10:29:39.595Z,1.60
2022-09-12T10:32:09.276Z,1.52
2022-09-12T10:34:42.735Z,1.42
2022-09-12T10:37:34.433Z,1.40
2022-09-12T10:40:05.837Z,1.38
2022-09-12T10:42:44.147Z,1.37
2022-09-12T10:45:37.974Z,1.25
2022-09-12T10:48:30.377Z,1.83
2022-09-12T10:50:59.326Z,1.52
2022-09-12T10:53:34.127Z,1.70
2022-09-12T10:56:13.601Z,1.33
2022-09-12T10:59:07.498Z,1.38
2022-09-12T11:01:47.318Z,1.33
2022-09-12T11:04:56.203Z,1.35
2022-09-12T11:07:51.070Z,1.30
2022-09-12T11:10:45.700Z,1.30
2022-09-12T11:13:27.575Z,1.63
2022-09-12T11:16:13.271Z,1.35
2022-09-12T11:19:05.083Z,1.30
2022-09-12T11:21:41.482Z,1.37
2022-09-12T11:24:17.516Z,1.67
2022-09-12T11:27:20.490Z,1.58
2022-09-12T11:29:59.749Z,1.40
2022-09-12T11:32:46.163Z,1.33
2022-09-12T11:35:17.585Z,1.60
2022-09-12T11:38:17.512Z,1.58
2022-09-12T11:40:50.109Z,1.52
2022-09-12T11:43:31.420Z,1.80
2022-09-12T11:46:21.955Z,1.27
2022-09-12T11:48:57.529Z,1.42
2022-09-12T11:51:29.021Z,1.67
2022-09-12T11:54:14.059Z,1.93
2022-09-12T11:56:46.141Z,2.50
2022-09-12T11:59:51.680Z,1.10
2022-09-12T12:02:40.006Z,1.20
2022-09-12T12:05:20.598Z,1.38
2022-09-12T12:07:53.919Z,1.45
2022-09-12T12:10:26.725Z,1.00
2022-09-12T12:12:56.262Z,1.98
2022-09-12T12:15:25.837Z,1.58
2022-09-12T12:18:20.429Z,1.30
2022-09-12T12:20:48.241Z,1.33
2022-09-12T12:23:34.437Z,1.40
2022-09-12T12:26:04.289Z,1.50
2022-09-12T12:28:59.241Z,2.05
2022-09-12T12:31:26.544Z,1.10
2022-09-12T12:34:00.700Z,1.42
2022-09-12T12:36:41.447Z,1.60
2022-09-12T12:39:33.095Z,1.35
2022-09-12T12:42:00.764Z,1.90
2022-09-12T12:44:45.833Z,1.20
2022-09-12T12:47:25.783Z,1.30
2022-09-12T12:50:16.028Z,1.75
2022-09-12T12:52:50.628Z,1.20
2022-09-12T12:55:38.963Z,0.82
2022-09-12T12:58:08.023Z,1.00
2022-09-12T13:00:39.783Z,1.33
2022-09-12T13:03:06.984Z,1.55
2022-09-12T13:05:57.651Z,1.67
2022-09-12T13:08:28.859Z,1.60
2022-09-12T13:11:03.185Z,1.77
2022-09-12T13:13:41.204Z,1.30
2022-09-12T13:16:11.112Z,1.42
2022-09-12T13:18:47.678Z,1.45
2022-09-12T13:21:18.580Z,1.10
2022-09-12T13:24:00.741Z,1.00
2022-09-12T13:26:27.860Z,1.27
2022-09-12T13:29:10.251Z,1.00
2022-09-12T13:31:37.912Z,1.35
2022-09-12T13:34:08.437Z,1.52
2022-09-12T13:37:05.146Z,1.50
2022-09-12T13:39:42.743Z,1.20
2022-09-12T13:42:32.365Z,1.60
2022-09-12T13:45:04.893Z,1.58
2022-09-12T13:47:44.576Z,1.30
2022-09-12T13:50:31.933Z,1.02
2022-09-12T13:53:03.933Z,1.20
2022-09-12T13:55:42.607Z,1.20
2022-09-12T13:58:23.062Z,1.10
2022-09-12T14:01:10.043Z,1.23
2022-09-12T14:04:00.952Z,1.42
2022-09-12T14:06:28.515Z,1.02
2022-09-12T14:09:01.580Z,0.93
2022-09-12T14:11:30.802Z,1.13
2022-09-12T14:13:58.378Z,1.23
2022-09-12T14:16:29.162Z,1.30
2022-09-12T14:18:57.333Z,1.25
2022-09-12T14:21:35.017Z,1.10
2022-09-12T14:24:05.153Z,1.00
2022-09-12T14:26:37.650Z,1.23
2022-09-12T14:29:08.942Z,1.08
2022-09-12T14:31:38.549Z,0.82
2022-09-12T14:34:16.315Z,1.42
2022-09-12T14:36:47.846Z,0.90
2022-09-12T14:39:41.552Z,1.10
2022-09-12T14:42:21.344Z,1.17
2022-09-12T14:45:01.907Z,6.22
2022-09-12T14:47:39.506Z,2.67
2022-09-12T14:50:22.027Z,1.75
2022-09-12T14:55:32.230Z,1.02
2022-09-12T14:58:14.772Z,1.63
2022-09-12T15:03:30.355Z,1.60
2022-09-12T15:05:58.367Z,1.23
2022-09-12T15:08:25.663Z,1.73
2022-09-12T15:10:52.835Z,1.45
2022-09-12T15:13:23.162Z,1.67
2022-09-12T15:15:55.935Z,1.40
2022-09-12T15:18:27.825Z,1.30
2022-09-12T15:21:11.975Z,1.13
2022-09-12T15:23:47.160Z,1.33
2022-09-12T15:26:18.489Z,0.90
2022-09-12T15:28:45.756Z,2.38
2022-09-12T15:31:30.525Z,2.78
2022-09-12T15:33:59.294Z,1.60
2022-09-12T15:36:26.717Z,1.40
2022-09-12T15:38:53.843Z,1.40
2022-09-12T15:41:23.947Z,1.25
2022-09-12T15:43:51.361Z,1.20
2022-09-12T15:46:20.388Z,1.65
2022-09-12T15:48:47.414Z,1.35
2022-09-12T15:51:22.215Z,1.30
2022-09-12T15:53:50.969Z,1.50
2022-09-12T15:56:20.310Z,1.27
2022-09-12T15:58:58.343Z,1.77
2022-09-12T16:01:27.904Z,2.60
2022-09-12T16:03:55.115Z,2.00
2022-09-12T16:06:22.606Z,1.90
2022-09-12T16:08:49.722Z,1.60
2022-09-12T16:11:23.073Z,1.20
2022-09-12T16:13:52.065Z,1.48
2022-09-12T16:16:19.054Z,1.65
2022-09-12T16:18:46.135Z,1.83
2022-09-12T16:21:15.568Z,2.08
2022-09-12T16:23:45.967Z,2.90
2022-09-12T16:26:13.495Z,2.38
2022-09-12T16:28:40.831Z,2.08
2022-09-12T16:31:10.853Z,2.50
2022-09-12T16:33:39.182Z,2.88
2022-09-12T16:36:11.545Z,4.30
2022-09-12T16:38:46.714Z,3.97
2022-09-12T16:41:15.978Z,6.75
2022-09-12T16:43:43.577Z,4.22
2022-09-12T16:46:22.411Z,4.70
2022-09-12T16:48:52.612Z,3.40
2022-09-12T16:51:30.850Z,3.60
2022-09-12T16:53:57.980Z,3.30
2022-09-12T16:56:25.559Z,3.13
2022-09-12T16:58:52.786Z,2.97
2022-09-12T17:01:25.551Z,3.08
2022-09-12T17:03:57.783Z,3.00
2022-09-12T17:06:26.114Z,4.63
2022-09-12T17:08:54.849Z,6.95
2022-09-12T17:11:31.039Z,4.10
2022-09-12T17:14:07.324Z,3.45
2022-09-12T17:16:37.472Z,5.85
2022-09-12T17:19:05.590Z,4.65
2022-09-12T17:21:33.147Z,5.13
2022-09-12T17:24:00.172Z,4.15
2022-09-12T17:26:27.483Z,6.43
2022-09-12T17:28:54.403Z,8.27
2022-09-12T17:31:23.117Z,17.27
2022-09-12T17:33:50.128Z,7.90
2022-09-12T17:36:18.222Z,19.17
2022-09-12T17:38:46.531Z,6.85
2022-09-12T17:41:19.145Z,7.18
2022-09-12T17:46:20.802Z,7.15
2022-09-12T17:48:56.486Z,4.15
2022-09-12T17:51:25.974Z,7.38
2022-09-12T17:53:59.282Z,6.97
2022-09-12T17:56:31.807Z,5.18
2022-09-12T17:58:59.691Z,4.70
2022-09-12T18:01:46.560Z,9.65
2022-09-12T18:04:13.807Z,12.98
2022-09-12T18:06:47.862Z,6.20
2022-09-12T18:09:17.810Z,6.22
2022-09-12T18:11:44.940Z,11.32
2022-09-12T18:14:14.171Z,11.63
2022-09-12T18:16:41.792Z,7.65
2022-09-12T18:19:08.899Z,11.43
2022-09-12T18:22:24.408Z,7.88
2022-09-12T18:24:51.486Z,7.28
2022-09-12T18:27:18.355Z,6.80
2022-09-12T18:29:58.934Z,5.63
2022-09-12T18:32:32.139Z,4.82
2022-09-12T18:34:59.044Z,5.30
2022-09-12T18:37:33.152Z,7.57
2022-09-12T18:40:00.488Z,5.93
2022-09-12T18:42:27.580Z,6.35
2022-09-12T18:45:10.969Z,5.97
2022-09-12T18:47:38.024Z,6.50
2022-09-12T18:50:05.620Z,5.55
2022-09-12T18:52:32.487Z,5.60
2022-09-12T18:54:59.444Z,6.15
2022-09-12T18:57:26.399Z,5.82
2022-09-12T18:59:54.494Z,7.25
2022-09-12T19:02:21.422Z,7.70
2022-09-12T19:04:48.505Z,6.47
2022-09-12T19:07:17.178Z,5.75
2022-09-12T19:09:44.717Z,7.07
2022-09-12T19:12:11.726Z,6.03
2022-09-12T19:14:38.731Z,6.05
2022-09-12T19:17:06.076Z,5.32
2022-09-12T19:19:33.029Z,4.85
2022-09-12T19:21:59.956Z,6.70
2022-09-12T19:24:27.148Z,5.40
2022-09-12T19:26:54.045Z,4.57
2022-09-12T19:29:20.977Z,5.10
2022-09-12T19:31:47.913Z,4.45
2022-09-12T19:34:15.498Z,4.15
2022-09-12T19:36:47.148Z,4.60
2022-09-12T19:39:19.895Z,4.93
2022-09-12T19:41:47.558Z,3.95
2022-09-12T19:44:14.856Z,3.97
2022-09-12T19:46:42.067Z,4.65
2022-09-12T19:49:11.382Z,4.82
2022-09-12T19:51:38.264Z,4.72
2022-09-12T19:54:06.459Z,4.57
2022-09-12T19:56:33.361Z,5.18
2022-09-12T19:59:00.334Z,4.47
2022-09-12T20:01:30.741Z,4.05
2022-09-12T20:03:58.973Z,4.60
2022-09-12T20:06:27.106Z,4.13
2022-09-12T20:08:55.035Z,4.40
2022-09-12T20:11:23.720Z,4.13
2022-09-12T20:13:51.310Z,4.47
2022-09-12T20:16:29.172Z,4.93
2022-09-12T20:18:58.976Z,5.28
2022-09-12T20:21:36.913Z,5.22
2022-09-12T20:24:12.083Z,4.38
2022-09-12T20:26:40.010Z,4.07
2022-09-12T20:29:08.450Z,4.22
2022-09-12T20:31:36.976Z,4.15
2022-09-12T20:34:04.720Z,3.80
2022-09-12T20:36:32.063Z,4.00
2022-09-12T20:39:01.375Z,3.72
2022-09-12T20:41:31.082Z,4.80
2022-09-12T20:43:58.539Z,4.05
2022-09-12T20:46:27.214Z,3.95
2022-09-12T20:48:54.716Z,3.58
2022-09-12T20:51:22.724Z,3.55
2022-09-12T20:53:54.334Z,4.43
2022-09-12T20:56:22.135Z,3.50
2022-09-12T20:58:49.183Z,3.63
2022-09-12T21:01:16.865Z,4.45
2022-09-12T21:03:44.806Z,4.10
2022-09-12T21:06:14.372Z,4.75
2022-09-12T21:08:41.333Z,5.30
2022-09-12T21:11:08.558Z,3.85
2022-09-12T21:13:36.575Z,3.47
2022-09-12T21:16:05.000Z,4.10
2022-09-12T21:18:33.381Z,4.20
2022-09-12T21:21:00.588Z,3.80
2022-09-12T21:23:28.297Z,3.28
2022-09-12T21:25:55.407Z,3.80
2022-09-12T21:28:22.381Z,3.30
2022-09-12T21:30:50.110Z,3.17
2022-09-12T21:33:18.339Z,3.03
2022-09-12T21:35:45.922Z,3.28
2022-09-12T21:38:13.061Z,3.30
2022-09-12T21:40:39.977Z,3.10
2022-09-12T21:43:12.520Z,3.25
2022-09-12T21:45:40.555Z,3.05
2022-09-12T21:48:08.119Z,3.08
2022-09-12T21:50:35.085Z,3.28
2022-09-12T21:53:01.998Z,3.40
2022-09-12T21:55:29.290Z,3.33
2022-09-12T21:57:56.562Z,3.08
2022-09-12T22:00:24.051Z,2.65
2022-09-12T22:02:51.103Z,3.38
2022-09-12T22:05:21.423Z,3.10
2022-09-12T22:07:48.394Z,2.83
2022-09-12T22:10:15.351Z,2.80
2022-09-12T22:12:46.047Z,3.10
2022-09-12T22:15:38.952Z,2.85
2022-09-12T22:18:00.855Z,3.15
2022-09-12T22:20:27.776Z,3.08
2022-09-12T22:23:13.250Z,3.17
2022-09-12T22:25:40.381Z,3.03
2022-09-12T22:28:07.309Z,3.33
2022-09-12T22:30:34.231Z,2.95
2022-09-12T22:33:01.290Z,3.20
2022-09-12T22:35:28.220Z,3.50
2022-09-12T22:37:55.059Z,3.50
2022-09-12T22:40:22.145Z,3.35
2022-09-12T22:42:52.387Z,3.60
2022-09-12T22:45:19.965Z,3.05
2022-09-12T22:47:46.993Z,3.20
2022-09-12T22:50:14.422Z,3.20
2022-09-12T22:52:41.777Z,2.80
2022-09-12T22:55:09.825Z,3.15
2022-09-12T22:57:37.490Z,2.85
2022-09-12T23:00:08.062Z,3.20
2022-09-12T23:02:35.022Z,2.92
2022-09-12T23:05:02.834Z,2.95
2022-09-12T23:07:29.758Z,3.28
2022-09-12T23:09:57.000Z,2.97
2022-09-12T23:12:23.978Z,2.88
2022-09-12T23:14:50.869Z,3.03
2022-09-12T23:17:17.895Z,3.08
2022-09-12T23:19:44.768Z,2.90
2022-09-12T23:22:11.676Z,2.90
2022-09-12T23:24:38.896Z,3.00
2022-09-12T23:27:06.164Z,3.13
2022-09-12T23:29:35.489Z,2.97
2022-09-12T23:32:03.863Z,2.95
2022-09-12T23:34:31.057Z,2.78
2022-09-12T23:36:58.029Z,3.10
2022-09-12T23:39:25.049Z,2.70
2022-09-12T23:41:52.269Z,2.70
2022-09-12T23:44:19.236Z,2.83
2022-09-12T23:46:46.207Z,2.95
2022-09-12T23:49:13.251Z,2.90
2022-09-12T23:51:40.236Z,2.75
2022-09-12T23:54:07.171Z,2.83
2022-09-12T23:56:34.232Z,3.00
2022-09-12T23:59:01.224Z,2.83
